Time;durP1;ratioP1;P1;durP2;ratioP2;P2;SDS_P1;SDS_P2;PMS_P1;PMS_P2;Temp;Humidity;BMP_temperature;BMP_pressure;BME280_temperature;BME280_humidity;BME280_pressure;Samples;Min_cycle;Max_cycle;Signal;HPM_P1;HPM_P2
2023/07/15 00:01:15;;;;;;;3.47;2.72;;;18.80;99.90;;;;;;5065143;28;20048;-75
2023/07/15 00:03:41;;;;;;;5.43;3.03;;;18.80;99.90;;;;;;5036433;28;20048;-75
2023/07/15 00:06:08;;;;;;;5.20;2.67;;;18.90;99.90;;;;;;5026770;28;20106;-75
2023/07/15 00:08:34;;;;;;;8.38;3.63;;;18.90;99.90;;;;;;5046607;28;20484;-74
2023/07/15 00:11:02;;;;;;;4.38;2.92;;;18.90;99.90;;;;;;5043206;28;20060;-75
2023/07/15 00:13:28;;;;;;;5.45;3.83;;;18.90;99.90;;;;;;5045187;28;20060;-75
2023/07/15 00:15:53;;;;;;;4.88;2.80;;;18.90;99.90;;;;;;5044929;28;20048;-75
2023/07/15 00:18:21;;;;;;;5.43;2.88;;;18.90;99.90;;;;;;5043356;28;20041;-74
2023/07/15 00:20:47;;;;;;;4.68;2.80;;;18.90;99.90;;;;;;5044051;28;20071;-75
2023/07/15 00:23:21;;;;;;;6.15;3.50;;;18.90;99.90;;;;;;5042043;28;20403;-74
2023/07/15 00:25:48;;;;;;;4.25;2.58;;;18.90;99.90;;;;;;5024706;28;20038;-74
2023/07/15 00:28:14;;;;;;;5.68;3.35;;;18.90;99.90;;;;;;5034826;28;20041;-74
2023/07/15 00:30:40;;;;;;;5.47;3.25;;;18.90;99.90;;;;;;5043919;28;20067;-75
2023/07/15 00:33:08;;;;;;;7.47;3.25;;;18.90;99.90;;;;;;5043898;28;20049;-75
2023/07/15 00:35:34;;;;;;;3.65;2.67;;;18.90;99.90;;;;;;5042254;28;20163;-75
2023/07/15 00:38:00;;;;;;;4.72;2.67;;;18.90;99.90;;;;;;5044111;28;20108;-75
2023/07/15 00:40:26;;;;;;;4.45;3.00;;;18.90;99.90;;;;;;5042552;28;20048;-74
2023/07/15 00:43:30;;;;;;;5.15;3.30;;;18.90;99.90;;;;;;5042833;28;20040;-74
2023/07/15 00:46:17;;;;;;;4.25;2.33;;;18.90;99.90;;;;;;5026739;28;20072;-74
2023/07/15 00:48:51;;;;;;;4.18;2.80;;;18.90;99.90;;;;;;5026410;28;20045;-74
2023/07/15 00:51:17;;;;;;;3.20;2.63;;;18.90;99.90;;;;;;5041188;28;20511;-74
2023/07/15 00:53:43;;;;;;;3.40;2.50;;;18.90;99.90;;;;;;5043133;28;20037;-74
2023/07/15 00:56:09;;;;;;;6.60;3.45;;;18.90;99.90;;;;;;5042884;28;20411;-74
2023/07/15 00:58:35;;;;;;;4.15;2.80;;;18.90;99.90;;;;;;5043411;28;20404;-74
2023/07/15 01:01:01;;;;;;;3.10;2.58;;;18.90;99.90;;;;;;5116979;22;20029;-75
2023/07/15 01:03:27;;;;;;;3.83;2.53;;;18.90;99.90;;;;;;5085315;28;20044;-74
2023/07/15 01:05:52;;;;;;;5.13;2.75;;;18.90;99.90;;;;;;5107988;27;20039;-74
2023/07/15 01:08:18;;;;;;;2.58;2.38;;;18.90;99.90;;;;;;5112844;27;20039;-74
2023/07/15 01:10:44;;;;;;;5.18;2.72;;;18.90;99.90;;;;;;5094314;27;20177;-74
2023/07/15 01:13:09;;;;;;;5.10;2.50;;;18.90;99.90;;;;;;5117036;27;20545;-74
2023/07/15 01:15:35;;;;;;;5.30;2.50;;;18.90;99.90;;;;;;5105893;27;20044;-74
2023/07/15 01:18:01;;;;;;;5.50;2.67;;;18.90;99.90;;;;;;5104230;28;20035;-75
2023/07/15 01:20:26;;;;;;;3.75;2.33;;;18.90;99.90;;;;;;5069506;28;20132;-74
2023/07/15 01:22:52;;;;;;;7.30;3.03;;;18.90;99.90;;;;;;5086004;28;20039;-74
2023/07/15 01:25:18;;;;;;;3.15;2.47;;;18.90;99.90;;;;;;5113032;27;20031;-74
2023/07/15 01:27:43;;;;;;;4.70;2.80;;;18.90;99.90;;;;;;5118743;27;20070;-74
2023/07/15 01:30:09;;;;;;;3.78;2.58;;;18.90;99.90;;;;;;5109966;27;20073;-75
2023/07/15 01:32:35;;;;;;;2.95;2.47;;;18.90;99.90;;;;;;5111093;27;20043;-75
2023/07/15 01:35:03;;;;;;;4.88;2.67;;;19.00;99.90;;;;;;5085153;28;20123;-75
2023/07/15 01:37:29;;;;;;;3.47;2.40;;;18.90;99.90;;;;;;5104916;28;20077;-74
2023/07/15 01:39:56;;;;;;;3.55;2.33;;;19.00;99.90;;;;;;5122338;27;20040;-74
2023/07/15 01:42:22;;;;;;;4.22;2.40;;;18.90;99.90;;;;;;5122671;27;20031;-74
2023/07/15 01:44:47;;;;;;;3.78;2.67;;;19.00;99.90;;;;;;5123061;27;20032;-74
2023/07/15 01:47:13;;;;;;;5.20;2.75;;;19.00;99.90;;;;;;5093165;28;20569;-75
2023/07/15 01:49:39;;;;;;;4.13;2.58;;;19.00;99.90;;;;;;5105071;28;20067;-74
2023/07/15 01:52:06;;;;;;;3.13;2.35;;;19.00;99.90;;;;;;5110101;28;20066;-75
2023/07/15 01:54:32;;;;;;;4.20;1.90;;;18.90;99.90;;;;;;5124561;27;20095;-75
2023/07/15 01:56:57;;;;;;;5.57;2.28;;;19.00;99.90;;;;;;5123255;27;20567;-74
2023/07/15 01:59:23;;;;;;;3.40;2.40;;;19.00;99.90;;;;;;5122579;28;20049;-74
2023/07/15 02:01:49;;;;;;;4.70;2.17;;;19.00;99.90;;;;;;5118813;28;20089;-75
2023/07/15 02:04:15;;;;;;;3.85;2.65;;;19.00;99.90;;;;;;5115814;28;20079;-75
2023/07/15 02:06:41;;;;;;;3.17;2.05;;;18.90;99.90;;;;;;5103120;28;20071;-75
2023/07/15 02:09:07;;;;;;;3.80;2.20;;;19.00;99.90;;;;;;5093433;28;20043;-74
2023/07/15 02:11:34;;;;;;;2.80;1.65;;;19.00;99.90;;;;;;5105888;28;20043;-75
2023/07/15 02:14:00;;;;;;;3.60;2.70;;;19.00;99.90;;;;;;5102515;28;20079;-75
2023/07/15 02:16:27;;;;;;;3.33;2.00;;;19.00;99.90;;;;;;5103862;28;20082;-75
2023/07/15 02:18:52;;;;;;;6.15;2.60;;;19.00;99.90;;;;;;5085601;28;20061;-74
2023/07/15 02:21:19;;;;;;;2.10;1.63;;;19.00;99.90;;;;;;5084457;28;20044;-74
2023/07/15 02:23:45;;;;;;;3.83;2.30;;;19.00;99.90;;;;;;5103517;28;20111;-75
2023/07/15 02:26:11;;;;;;;5.45;2.95;;;19.00;99.90;;;;;;5123314;28;20476;-75
2023/07/15 02:28:37;;;;;;;2.95;2.40;;;19.00;99.90;;;;;;5121144;28;20047;-75
2023/07/15 02:31:04;;;;;;;4.97;2.17;;;19.00;99.90;;;;;;5112261;28;20409;-74
2023/07/15 02:33:29;;;;;;;3.67;2.08;;;19.00;99.90;;;;;;5123717;28;20051;-75
2023/07/15 02:35:55;;;;;;;5.60;2.63;;;19.00;99.90;;;;;;5123908;28;20518;-74
2023/07/15 02:38:21;;;;;;;5.00;2.45;;;19.00;99.90;;;;;;5088598;28;20035;-74
2023/07/15 02:40:48;;;;;;;3.30;2.38;;;19.00;99.90;;;;;;5103821;28;20047;-74
2023/07/15 02:43:14;;;;;;;2.72;2.20;;;19.00;99.90;;;;;;5102511;28;20448;-75
2023/07/15 02:45:39;;;;;;;4.70;2.15;;;19.00;99.90;;;;;;5122712;28;20043;-74
2023/07/15 02:48:06;;;;;;;5.22;2.13;;;19.00;99.90;;;;;;5113453;28;20077;-75
2023/07/15 02:50:32;;;;;;;2.90;2.53;;;19.00;99.90;;;;;;5104126;28;20077;-75
2023/07/15 02:52:57;;;;;;;3.17;2.28;;;19.00;99.90;;;;;;5098271;28;20492;-74
2023/07/15 02:55:24;;;;;;;2.80;1.70;;;19.00;99.90;;;;;;5084755;28;20051;-74
2023/07/15 02:57:50;;;;;;;4.03;2.40;;;19.00;99.90;;;;;;5103289;28;20044;-74
2023/07/15 03:00:16;;;;;;;3.30;2.17;;;19.00;99.90;;;;;;5086398;28;20096;-74
2023/07/15 03:02:47;;;;;;;2.38;1.80;;;19.00;99.90;;;;;;5103289;28;20116;-75
2023/07/15 03:05:14;;;;;;;4.00;2.40;;;19.00;99.90;;;;;;5105331;27;20054;-74
2023/07/15 03:07:44;;;;;;;4.22;1.98;;;19.00;99.90;;;;;;5101333;27;20389;-75
2023/07/15 03:10:12;;;;;;;3.92;2.35;;;19.00;99.90;;;;;;5108255;27;20047;-74
2023/07/15 03:12:38;;;;;;;5.57;2.85;;;18.90;99.90;;;;;;5125367;27;20039;-75
2023/07/15 03:15:05;;;;;;;2.47;2.17;;;18.90;99.90;;;;;;5109972;27;20088;-74
2023/07/15 03:17:37;;;;;;;3.17;2.70;;;18.90;99.90;;;;;;5126564;27;20039;-75
2023/07/15 03:20:14;;;;;;;3.33;2.35;;;18.90;99.90;;;;;;5090689;27;20048;-75
2023/07/15 03:22:43;;;;;;;6.35;2.83;;;18.80;99.90;;;;;;5058077;28;20046;-75
2023/07/15 03:25:09;;;;;;;3.80;2.75;;;18.80;99.90;;;;;;5098923;28;20762;-75
2023/07/15 03:27:35;;;;;;;2.58;2.28;;;18.70;99.90;;;;;;5106940;28;20040;-75
2023/07/15 03:30:01;;;;;;;4.88;2.33;;;18.70;99.90;;;;;;5088202;28;20047;-75
2023/07/15 03:32:26;;;;;;;2.75;2.25;;;18.70;99.90;;;;;;5089470;27;20058;-74
2023/07/15 03:34:52;;;;;;;3.53;2.47;;;18.70;99.90;;;;;;5112702;27;20109;-74
2023/07/15 03:37:17;;;;;;;5.07;2.53;;;18.70;99.90;;;;;;5120230;27;20039;-74
2023/07/15 03:39:43;;;;;;;6.45;2.85;;;18.60;99.90;;;;;;5089318;28;20071;-74
2023/07/15 03:42:09;;;;;;;3.85;2.85;;;18.60;99.90;;;;;;5107220;27;20583;-75
2023/07/15 03:44:35;;;;;;;5.80;3.15;;;18.60;99.90;;;;;;5089396;28;20093;-75
2023/07/15 03:47:00;;;;;;;4.78;2.60;;;18.60;99.90;;;;;;5108586;27;20070;-75
2023/07/15 03:49:26;;;;;;;4.75;2.72;;;18.60;99.90;;;;;;5125669;27;20063;-74
2023/07/15 03:51:52;;;;;;;5.93;2.13;;;18.60;99.90;;;;;;5114914;27;20042;-74
2023/07/15 03:54:17;;;;;;;4.45;2.35;;;18.50;99.90;;;;;;5105735;27;20517;-74
2023/07/15 03:56:43;;;;;;;4.72;2.53;;;18.60;99.90;;;;;;5100203;27;20144;-75
2023/07/15 03:59:09;;;;;;;3.97;2.33;;;18.50;99.90;;;;;;5106015;28;20118;-74
2023/07/15 04:01:35;;;;;;;3.78;2.50;;;18.60;99.90;;;;;;5084301;28;20476;-75
2023/07/15 04:04:08;;;;;;;3.58;2.30;;;18.50;99.90;;;;;;5083732;28;20075;-75
2023/07/15 04:06:34;;;;;;;4.03;2.88;;;18.50;99.90;;;;;;5095426;28;20043;-74
2023/07/15 04:09:00;;;;;;;6.68;3.35;;;18.50;99.90;;;;;;5087120;28;20098;-75
2023/07/15 04:11:25;;;;;;;4.75;2.67;;;18.50;99.90;;;;;;5085556;28;20036;-74
2023/07/15 04:13:51;;;;;;;3.53;2.40;;;18.50;99.90;;;;;;5085379;28;20542;-74
2023/07/15 04:16:17;;;;;;;3.63;2.28;;;18.50;99.90;;;;;;5084969;28;20036;-74
2023/07/15 04:18:42;;;;;;;6.03;2.58;;;18.60;99.90;;;;;;5085374;28;20044;-74
2023/07/15 04:21:08;;;;;;;5.68;2.90;;;18.60;99.90;;;;;;5084057;28;20089;-75
2023/07/15 04:23:34;;;;;;;5.65;2.35;;;18.60;99.90;;;;;;5085105;28;20040;-75
2023/07/15 04:26:00;;;;;;;2.90;2.60;;;18.60;99.90;;;;;;5085389;28;20114;-75
2023/07/15 04:28:25;;;;;;;4.72;3.15;;;18.60;99.90;;;;;;5085488;28;20040;-74
2023/07/15 04:30:51;;;;;;;4.13;2.40;;;18.60;99.90;;;;;;5085128;28;20044;-74
2023/07/15 04:33:17;;;;;;;4.65;2.70;;;18.60;99.90;;;;;;5085204;28;20123;-74
2023/07/15 04:35:44;;;;;;;4.10;2.67;;;18.60;99.90;;;;;;5083726;28;20075;-74
2023/07/15 04:38:10;;;;;;;4.45;2.88;;;18.70;99.90;;;;;;5084769;28;20036;-74
2023/07/15 04:40:36;;;;;;;3.92;2.80;;;18.70;99.90;;;;;;5096514;28;20067;-75
2023/07/15 04:43:02;;;;;;;3.17;2.22;;;18.70;99.90;;;;;;5104970;28;20058;-75
2023/07/15 04:45:29;;;;;;;3.90;2.75;;;18.70;99.90;;;;;;5105650;28;20047;-74
2023/07/15 04:47:55;;;;;;;5.20;2.55;;;18.70;99.90;;;;;;5105556;28;20132;-74
2023/07/15 04:50:21;;;;;;;9.02;2.55;;;18.80;99.90;;;;;;5104088;28;20085;-75
2023/07/15 04:52:46;;;;;;;2.90;2.35;;;18.90;99.90;;;;;;5103949;28;20075;-74
2023/07/15 04:55:12;;;;;;;4.45;2.33;;;18.90;99.90;;;;;;5104396;28;20050;-75
2023/07/15 04:57:38;;;;;;;5.22;2.35;;;18.90;99.90;;;;;;5104764;28;20144;-75
2023/07/15 05:00:06;;;;;;;6.60;3.05;;;19.00;99.90;;;;;;5105015;28;20458;-75
2023/07/15 05:02:33;;;;;;;6.65;2.90;;;19.00;99.90;;;;;;5105525;27;20069;-75
2023/07/15 05:04:59;;;;;;;2.78;2.05;;;19.10;99.90;;;;;;5103580;28;20134;-75
2023/07/15 05:07:25;;;;;;;5.53;2.40;;;19.20;99.90;;;;;;5105209;28;20259;-74
2023/07/15 05:09:50;;;;;;;3.15;2.28;;;19.20;99.90;;;;;;5104959;28;20492;-74
2023/07/15 05:12:17;;;;;;;3.42;2.72;;;19.20;99.90;;;;;;5104613;28;20090;-75
2023/07/15 05:14:42;;;;;;;2.40;2.00;;;19.30;99.90;;;;;;5065637;28;20115;-74
2023/07/15 05:17:08;;;;;;;3.78;2.08;;;19.30;99.90;;;;;;5084451;28;20165;-75
2023/07/15 05:19:34;;;;;;;3.90;2.45;;;19.40;99.90;;;;;;5083272;28;20042;-74
2023/07/15 05:22:00;;;;;;;2.85;2.22;;;19.40;99.90;;;;;;5084055;27;20050;-75
2023/07/15 05:24:28;;;;;;;3.22;2.17;;;19.50;99.90;;;;;;5105401;28;20039;-74
2023/07/15 05:26:54;;;;;;;5.90;2.65;;;19.50;99.90;;;;;;5104315;28;20049;-74
2023/07/15 05:29:20;;;;;;;6.97;2.20;;;19.60;99.90;;;;;;5103665;28;20126;-74
2023/07/15 05:31:46;;;;;;;7.45;2.65;;;19.60;99.90;;;;;;5104231;28;20122;-74
2023/07/15 05:34:11;;;;;;;5.13;3.17;;;19.70;99.90;;;;;;5104267;28;20498;-74
2023/07/15 05:36:37;;;;;;;2.60;2.22;;;19.70;99.90;;;;;;5111034;27;20031;-75
2023/07/15 05:39:03;;;;;;;4.38;2.42;;;19.70;99.90;;;;;;5124142;27;20047;-75
2023/07/15 05:41:28;;;;;;;4.85;2.60;;;19.80;99.90;;;;;;5116169;27;20035;-74
2023/07/15 05:43:54;;;;;;;4.82;2.33;;;19.80;99.90;;;;;;5104338;28;20047;-74
2023/07/15 05:46:20;;;;;;;7.32;2.20;;;19.80;99.90;;;;;;5103456;28;20167;-75
2023/07/15 05:48:46;;;;;;;3.72;2.47;;;19.90;99.90;;;;;;5086310;28;20043;-75
2023/07/15 05:51:11;;;;;;;2.60;1.98;;;19.90;99.90;;;;;;5085739;28;20088;-75
2023/07/15 05:53:37;;;;;;;3.45;2.65;;;19.90;99.90;;;;;;5103776;28;20529;-75
2023/07/15 05:56:04;;;;;;;4.97;2.78;;;20.00;99.90;;;;;;5123045;27;20035;-75
2023/07/15 05:58:29;;;;;;;3.65;2.40;;;20.00;99.90;;;;;;5123392;27;20043;-75
2023/07/15 06:00:55;;;;;;;7.15;2.92;;;20.10;99.90;;;;;;5124221;28;20477;-75
2023/07/15 06:03:21;;;;;;;4.65;2.55;;;20.10;99.90;;;;;;5114611;28;20044;-75
2023/07/15 06:05:47;;;;;;;4.95;2.33;;;20.10;99.90;;;;;;5110400;28;20130;-75
2023/07/15 06:08:12;;;;;;;4.55;2.45;;;20.20;99.90;;;;;;5121498;28;20159;-75
2023/07/15 06:10:38;;;;;;;3.17;2.15;;;20.20;99.90;;;;;;5124444;28;20780;-75
2023/07/15 06:13:03;;;;;;;4.03;2.55;;;20.20;99.90;;;;;;5124159;28;20131;-75
2023/07/15 06:15:29;;;;;;;5.65;2.45;;;20.30;99.90;;;;;;5095010;28;20051;-75
2023/07/15 06:17:57;;;;;;;3.53;1.73;;;20.30;99.90;;;;;;5103965;28;20310;-75
2023/07/15 06:20:23;;;;;;;4.60;2.17;;;20.40;99.90;;;;;;5102728;28;20059;-75
2023/07/15 06:22:49;;;;;;;4.78;2.00;;;20.40;99.90;;;;;;5103800;28;20485;-75
2023/07/15 06:25:16;;;;;;;3.30;1.55;;;20.40;99.90;;;;;;5085319;28;20105;-75
2023/07/15 06:27:41;;;;;;;2.10;1.73;;;20.50;99.90;;;;;;5085155;28;20632;-75
2023/07/15 06:30:08;;;;;;;5.70;2.15;;;20.50;99.90;;;;;;5068401;28;20039;-75
2023/07/15 06:32:33;;;;;;;2.05;1.60;;;20.50;99.90;;;;;;5099862;28;20133;-75
2023/07/15 06:34:59;;;;;;;1.58;1.48;;;20.50;99.90;;;;;;5089681;28;20581;-75
2023/07/15 06:37:24;;;;;;;3.15;1.52;;;20.60;99.90;;;;;;5108204;28;20040;-75
2023/07/15 06:39:50;;;;;;;3.13;1.73;;;20.60;99.90;;;;;;5107587;27;20031;-75
2023/07/15 06:42:16;;;;;;;2.70;1.60;;;20.60;99.90;;;;;;5080427;27;20069;-75
2023/07/15 06:44:41;;;;;;;3.13;1.70;;;20.70;99.90;;;;;;5123353;27;20035;-75
2023/07/15 06:47:07;;;;;;;3.30;1.63;;;20.70;99.90;;;;;;5098074;28;20043;-75
2023/07/15 06:49:32;;;;;;;2.70;2.13;;;20.70;99.90;;;;;;5089983;28;20409;-75
2023/07/15 06:51:58;;;;;;;3.42;1.38;;;20.70;99.90;;;;;;5108961;27;20035;-75
2023/07/15 06:54:23;;;;;;;1.92;1.30;;;20.70;99.90;;;;;;5089704;28;20086;-74
2023/07/15 06:56:49;;;;;;;1.58;1.42;;;20.70;99.90;;;;;;5108673;27;20043;-74
2023/07/15 06:59:15;;;;;;;2.47;2.05;;;20.70;99.90;;;;;;5078027;28;20048;-75
2023/07/15 07:01:40;;;;;;;3.05;1.20;;;20.70;99.90;;;;;;5108814;27;20501;-75
2023/07/15 07:04:06;;;;;;;2.60;1.42;;;20.70;99.90;;;;;;5075158;27;20118;-75
2023/07/15 07:06:31;;;;;;;1.67;1.13;;;20.70;99.90;;;;;;5115558;27;20771;-75
2023/07/15 07:08:57;;;;;;;1.75;1.27;;;20.70;99.90;;;;;;5108144;28;20136;-75
2023/07/15 07:11:23;;;;;;;2.50;1.60;;;20.80;99.90;;;;;;5095537;27;20389;-75
2023/07/15 07:13:48;;;;;;;1.60;1.23;;;20.80;99.90;;;;;;5090268;27;20075;-75
2023/07/15 07:16:15;;;;;;;1.27;1.08;;;20.80;99.90;;;;;;5114590;27;20043;-76
2023/07/15 07:18:41;;;;;;;1.85;1.25;;;20.80;99.90;;;;;;5083002;28;20793;-75
2023/07/15 07:21:06;;;;;;;2.92;1.20;;;20.90;99.90;;;;;;5097853;28;20123;-75
2023/07/15 07:23:32;;;;;;;1.23;1.10;;;20.90;99.90;;;;;;5106605;28;20043;-76
2023/07/15 07:25:59;;;;;;;1.75;1.20;;;21.00;99.90;;;;;;5087431;27;20039;-74
2023/07/15 07:28:41;;;;;;;4.07;1.40;;;21.00;99.90;;;;;;5126446;27;20035;-76
2023/07/15 07:31:11;;;;;;;2.83;1.17;;;21.00;99.90;;;;;;5107694;27;20031;-75
2023/07/15 07:33:38;;;;;;;1.90;1.23;;;21.00;99.90;;;;;;5088839;27;20073;-75
2023/07/15 07:36:04;;;;;;;1.30;1.20;;;21.00;99.90;;;;;;5087295;28;20047;-75
2023/07/15 07:38:30;;;;;;;1.60;1.15;;;21.10;99.90;;;;;;5099071;28;20043;-76
2023/07/15 07:41:12;;;;;;;1.48;0.95;;;21.10;99.90;;;;;;5106073;28;20684;-74
2023/07/15 07:43:39;;;;;;;3.83;1.77;;;21.10;99.90;;;;;;5096905;27;20040;-74
2023/07/15 07:46:09;;;;;;;0.90;0.90;;;21.20;99.90;;;;;;5120944;27;20174;-74
2023/07/15 07:48:34;;;;;;;0.98;0.90;;;21.20;99.90;;;;;;5107173;27;20058;-75
2023/07/15 07:51:01;;;;;;;1.83;0.93;;;21.20;99.90;;;;;;5085301;28;20044;-76
2023/07/15 07:53:27;;;;;;;1.45;0.77;;;21.20;99.90;;;;;;5088192;28;20501;-74
2023/07/15 07:55:53;;;;;;;0.82;0.82;;;21.30;99.90;;;;;;5087601;28;20040;-73
2023/07/15 07:58:19;;;;;;;1.17;0.57;;;21.30;99.90;;;;;;5087786;28;20087;-74
2023/07/15 08:00:45;;;;;;;1.05;0.63;;;21.40;99.90;;;;;;5070770;28;20075;-74
2023/07/15 08:03:10;;;;;;;0.75;0.60;;;21.40;99.90;;;;;;5087311;28;20421;-74
2023/07/15 08:05:47;;;;;;;4.15;0.77;;;21.40;99.90;;;;;;5108510;27;20046;-75
2023/07/15 08:08:13;;;;;;;1.65;1.02;;;21.40;99.90;;;;;;5102134;27;20035;-74
2023/07/15 08:10:42;;;;;;;1.30;0.70;;;21.40;99.90;;;;;;5106228;28;20058;-76
2023/07/15 08:13:07;;;;;;;5.22;0.77;;;21.40;99.90;;;;;;5076237;28;20043;-76
2023/07/15 08:15:34;;;;;;;1.10;0.60;;;21.40;99.90;;;;;;5110788;27;20120;-76
2023/07/15 08:18:01;;;;;;;3.45;1.25;;;21.50;99.90;;;;;;5110676;27;20116;-76
2023/07/15 08:20:26;;;;;;;5.57;0.95;;;21.50;99.90;;;;;;5104470;28;20088;-74
2023/07/15 08:22:52;;;;;;;0.88;0.75;;;21.50;99.90;;;;;;5105241;27;20036;-75
2023/07/15 08:25:17;;;;;;;3.63;1.50;;;21.50;99.90;;;;;;5090011;27;20477;-74
2023/07/15 08:27:43;;;;;;;2.85;0.68;;;21.60;99.90;;;;;;5098907;28;20043;-75
2023/07/15 08:30:09;;;;;;;0.85;0.85;;;21.60;99.90;;;;;;5104486;28;20038;-76
2023/07/15 08:32:35;;;;;;;5.85;0.93;;;21.70;99.90;;;;;;5095931;28;20075;-76
2023/07/15 08:35:03;;;;;;;2.88;0.80;;;21.70;99.90;;;;;;5107890;27;20078;-79
2023/07/15 08:37:28;;;;;;;3.67;1.58;;;21.80;99.90;;;;;;5087208;28;20050;-75
2023/07/15 08:39:54;;;;;;;2.80;0.88;;;21.90;99.90;;;;;;5105350;28;20043;-75
2023/07/15 08:42:20;;;;;;;2.53;0.63;;;21.90;99.90;;;;;;5087285;27;20127;-75
2023/07/15 08:44:52;;;;;;;1.55;1.10;;;21.90;99.90;;;;;;5090665;28;20040;-75
2023/07/15 08:47:22;;;;;;;1.55;0.75;;;21.90;99.90;;;;;;5089467;28;20122;-74
2023/07/15 08:49:49;;;;;;;4.32;1.00;;;21.90;99.90;;;;;;5104190;28;20054;-75
2023/07/15 08:52:20;;;;;;;0.80;0.73;;;22.00;99.90;;;;;;5086151;28;20047;-78
2023/07/15 08:54:50;;;;;;;0.93;0.70;;;22.00;99.90;;;;;;5090924;28;20417;-75
2023/07/15 08:57:19;;;;;;;1.98;0.85;;;22.10;99.90;;;;;;5086616;27;20106;-80
2023/07/15 08:59:46;;;;;;;1.77;0.70;;;22.10;99.90;;;;;;5093554;28;20055;-75
2023/07/15 09:02:12;;;;;;;1.77;1.08;;;22.20;99.90;;;;;;5116972;27;20039;-75
2023/07/15 09:04:39;;;;;;;2.47;0.80;;;22.20;99.90;;;;;;5106924;27;20088;-75
2023/07/15 09:07:05;;;;;;;1.75;0.82;;;22.20;99.90;;;;;;5109554;27;20047;-75
2023/07/15 09:09:37;;;;;;;1.65;1.20;;;22.30;99.90;;;;;;5081061;28;20794;-75
2023/07/15 09:12:04;;;;;;;1.75;0.80;;;22.30;99.90;;;;;;5072834;27;20046;-75
2023/07/15 09:14:30;;;;;;;3.05;0.88;;;22.40;99.90;;;;;;5089994;28;20048;-75
2023/07/15 09:16:59;;;;;;;2.45;0.80;;;22.40;99.90;;;;;;5105244;28;20061;-75
2023/07/15 09:19:28;;;;;;;2.47;1.20;;;22.50;99.90;;;;;;5085859;27;20039;-74
2023/07/15 09:22:04;;;;;;;2.97;0.93;;;22.50;99.90;;;;;;5088970;28;20087;-75
2023/07/15 09:24:31;;;;;;;0.60;0.60;;;22.50;99.90;;;;;;5090836;28;20050;-75
2023/07/15 09:26:58;;;;;;;1.63;1.02;;;22.50;99.90;;;;;;5104568;28;20630;-74
2023/07/15 09:29:24;;;;;;;1.77;0.73;;;22.50;99.90;;;;;;5103860;28;20529;-75
2023/07/15 09:31:50;;;;;;;2.45;1.02;;;22.50;99.90;;;;;;5108145;27;20136;-75
2023/07/15 09:34:16;;;;;;;1.00;0.68;;;22.50;99.90;;;;;;5092019;28;20039;-75
2023/07/15 09:36:42;;;;;;;1.80;0.93;;;22.60;99.90;;;;;;5104015;27;20059;-75
2023/07/15 09:39:17;;;;;;;2.40;0.95;;;22.70;99.90;;;;;;5103586;27;20039;-75
2023/07/15 09:41:43;;;;;;;1.83;1.02;;;22.80;99.90;;;;;;5105392;27;20053;-75
2023/07/15 09:44:10;;;;;;;1.25;1.00;;;22.80;99.90;;;;;;5085225;28;20142;-75
2023/07/15 09:46:38;;;;;;;1.85;1.02;;;22.80;99.90;;;;;;5104134;28;20044;-74
2023/07/15 09:49:04;;;;;;;1.55;0.70;;;22.80;99.90;;;;;;5100982;28;20600;-75
2023/07/15 09:51:30;;;;;;;2.97;1.13;;;22.80;99.90;;;;;;5054424;28;20131;-75
2023/07/15 09:53:57;;;;;;;2.92;1.30;;;22.80;99.90;;;;;;5034967;28;20068;-74
2023/07/15 09:56:37;;;;;;;3.88;1.58;;;22.80;99.90;;;;;;5061615;28;20044;-74
2023/07/15 09:59:13;;;;;;;2.40;1.10;;;22.90;99.90;;;;;;5055220;28;20135;-74
2023/07/15 10:01:50;;;;;;;1.80;1.33;;;22.90;99.90;;;;;;5057815;28;20136;-74
2023/07/15 10:04:35;;;;;;;2.95;1.85;;;22.90;99.90;;;;;;5042307;28;20120;-75
2023/07/15 10:07:03;;;;;;;1.52;0.80;;;23.00;99.90;;;;;;5041388;28;20049;-75
2023/07/15 10:09:32;;;;;;;1.05;0.80;;;23.00;99.90;;;;;;5042142;28;20048;-75
2023/07/15 10:11:59;;;;;;;2.15;0.75;;;23.10;99.90;;;;;;5042525;28;20403;-75
2023/07/15 10:14:27;;;;;;;2.50;0.80;;;23.10;99.90;;;;;;5046218;28;20041;-75
2023/07/15 10:17:12;;;;;;;2.03;1.13;;;23.30;99.90;;;;;;5053182;28;20049;-74
2023/07/15 10:19:42;;;;;;;2.75;1.30;;;23.40;99.90;;;;;;5047034;28;20033;-75
2023/07/15 10:22:09;;;;;;;1.58;0.93;;;23.40;99.90;;;;;;5027332;28;20051;-74
2023/07/15 10:24:35;;;;;;;1.80;0.90;;;23.40;99.90;;;;;;5027599;28;20123;-74
2023/07/15 10:27:03;;;;;;;2.75;1.10;;;23.40;99.90;;;;;;5041545;28;20041;-74
2023/07/15 10:29:32;;;;;;;1.27;0.73;;;23.40;99.90;;;;;;5052127;28;20072;-74
2023/07/15 10:32:14;;;;;;;2.03;1.30;;;23.40;99.90;;;;;;5059380;28;20044;-74
2023/07/15 10:34:47;;;;;;;2.17;0.93;;;23.30;99.90;;;;;;5047316;28;20518;-73
2023/07/15 10:37:15;;;;;;;1.80;1.15;;;23.40;99.90;;;;;;5047276;28;20111;-73
2023/07/15 10:39:42;;;;;;;1.60;1.10;;;23.40;99.90;;;;;;5050966;28;20052;-72
2023/07/15 10:42:13;;;;;;;2.13;1.00;;;23.40;99.90;;;;;;5028274;28;20081;-73
2023/07/15 10:44:47;;;;;;;3.70;1.30;;;23.50;99.90;;;;;;5046433;28;20546;-73
2023/07/15 10:47:15;;;;;;;1.45;1.20;;;23.50;99.90;;;;;;5058026;28;20557;-73
2023/07/15 10:49:43;;;;;;;2.55;1.20;;;23.50;99.90;;;;;;5043942;28;20033;-73
2023/07/15 10:52:09;;;;;;;3.72;1.58;;;23.50;99.90;;;;;;5040579;28;20080;-73
2023/07/15 10:54:37;;;;;;;2.20;1.00;;;23.50;99.90;;;;;;5043951;28;20048;-73
2023/07/15 10:57:11;;;;;;;2.45;1.20;;;23.50;99.90;;;;;;5050423;28;20049;-75
2023/07/15 10:59:41;;;;;;;2.03;1.00;;;23.50;99.90;;;;;;5045194;28;20033;-74
2023/07/15 11:02:07;;;;;;;1.45;0.77;;;23.50;99.90;;;;;;5027371;28;20414;-74
2023/07/15 11:04:34;;;;;;;1.80;0.80;;;23.60;99.90;;;;;;5044082;28;20128;-73
2023/07/15 11:07:02;;;;;;;1.95;1.02;;;23.60;99.90;;;;;;5053926;28;20051;-74
2023/07/15 11:09:28;;;;;;;1.05;0.85;;;23.70;99.90;;;;;;5064860;28;20067;-74
2023/07/15 11:11:53;;;;;;;1.65;0.90;;;23.80;99.90;;;;;;5065079;28;20036;-73
2023/07/15 11:14:20;;;;;;;3.28;0.80;;;23.80;99.90;;;;;;5063069;28;20051;-73
2023/07/15 11:16:46;;;;;;;2.25;1.10;;;23.90;99.90;;;;;;5063009;28;20044;-74
2023/07/15 11:19:15;;;;;;;2.80;1.30;;;24.00;99.90;;;;;;5064139;28;20070;-73
2023/07/15 11:21:44;;;;;;;0.88;0.73;;;24.10;99.90;;;;;;5063888;28;20052;-73
2023/07/15 11:24:14;;;;;;;1.25;0.77;;;24.20;99.90;;;;;;5064418;28;20418;-74
2023/07/15 11:26:40;;;;;;;5.28;0.88;;;24.20;99.90;;;;;;5063362;28;20051;-74
2023/07/15 11:29:13;;;;;;;1.15;0.88;;;24.20;99.90;;;;;;5064396;28;20406;-73
2023/07/15 11:31:46;;;;;;;3.05;0.88;;;24.20;99.90;;;;;;5064825;28;20471;-73
2023/07/15 11:34:14;;;;;;;1.83;0.82;;;24.20;99.90;;;;;;5063729;28;20613;-73
2023/07/15 11:36:40;;;;;;;3.03;1.20;;;24.10;99.90;;;;;;5064536;28;20418;-74
2023/07/15 11:39:06;;;;;;;2.38;1.00;;;24.10;99.90;;;;;;5062485;28;20040;-74
2023/07/15 11:41:33;;;;;;;0.82;0.82;;;24.10;99.90;;;;;;5063545;28;20170;-74
2023/07/15 11:43:59;;;;;;;1.83;0.88;;;24.20;99.90;;;;;;5063417;28;20045;-73
2023/07/15 11:46:26;;;;;;;1.60;1.33;;;24.20;99.90;;;;;;5064860;28;20437;-74
2023/07/15 11:48:51;;;;;;;1.00;1.00;;;24.20;99.90;;;;;;5063626;28;20040;-74
2023/07/15 11:51:20;;;;;;;1.67;1.05;;;24.20;99.90;;;;;;5062832;28;20045;-74
2023/07/15 11:53:45;;;;;;;2.05;1.17;;;24.20;99.90;;;;;;5064429;28;20402;-74
2023/07/15 11:56:11;;;;;;;1.00;0.93;;;24.20;99.90;;;;;;5064032;28;20048;-73
2023/07/15 11:58:49;;;;;;;1.23;0.98;;;24.20;99.90;;;;;;5064347;28;20578;-74
2023/07/15 12:01:17;;;;;;;1.52;1.08;;;24.20;99.90;;;;;;5061898;28;20061;-73
2023/07/15 12:03:49;;;;;;;1.50;0.90;;;24.20;99.90;;;;;;5041989;28;20049;-73
2023/07/15 12:06:17;;;;;;;2.35;0.90;;;24.10;99.90;;;;;;5043846;28;20076;-73
2023/07/15 12:09:21;;;;;;;2.53;1.23;;;24.10;99.90;;;;;;5043408;28;20303;-74
2023/07/15 12:11:47;;;;;;;3.33;1.25;;;24.10;99.90;;;;;;4982000;28;20050;-74
2023/07/15 12:14:15;;;;;;;1.30;1.20;;;24.10;99.90;;;;;;5027375;28;20083;-74
2023/07/15 12:16:42;;;;;;;1.23;1.10;;;24.10;99.90;;;;;;5044528;28;20470;-74
2023/07/15 12:19:14;;;;;;;1.30;1.20;;;24.10;99.90;;;;;;5042941;28;20041;-73
2023/07/15 12:21:40;;;;;;;2.78;1.20;;;24.10;99.90;;;;;;5044268;28;20052;-73
2023/07/15 12:24:06;;;;;;;1.80;1.08;;;24.10;99.90;;;;;;5043321;28;20043;-73
2023/07/15 12:26:32;;;;;;;1.77;1.50;;;24.10;99.90;;;;;;5043342;28;20048;-74
2023/07/15 12:28:58;;;;;;;1.17;1.05;;;24.00;99.90;;;;;;5059766;28;20037;-74
2023/07/15 12:31:24;;;;;;;2.63;1.60;;;24.00;99.90;;;;;;5043408;28;20037;-73
2023/07/15 12:33:49;;;;;;;1.17;1.08;;;24.00;99.90;;;;;;5041086;28;20617;-73
2023/07/15 12:36:16;;;;;;;1.35;1.20;;;24.00;99.90;;;;;;5042040;28;20523;-73
2023/07/15 12:38:42;;;;;;;2.47;1.23;;;24.10;99.90;;;;;;5058994;28;20043;-73
2023/07/15 12:41:09;;;;;;;2.72;1.52;;;24.10;99.90;;;;;;5041920;28;20141;-73
2023/07/15 12:43:35;;;;;;;2.60;1.10;;;24.20;99.90;;;;;;5041921;28;20183;-73
2023/07/15 12:46:02;;;;;;;0.90;0.90;;;24.20;99.90;;;;;;5041907;28;20349;-74
2023/07/15 12:48:28;;;;;;;1.60;1.27;;;24.20;99.90;;;;;;5041722;28;20045;-73